createdAt,value
2018-05-13T00:00:14.084Z,57.00
2018-05-13T00:04:17.495Z,56.50
2018-05-13T00:08:20.904Z,56.50
2018-05-13T00:12:23.543Z,56.50
2018-05-13T00:16:26.187Z,57.00
2018-05-13T00:20:28.799Z,56.90
2018-05-13T00:24:31.441Z,56.40
2018-05-13T00:28:34.847Z,56.80
2018-05-13T00:32:38.270Z,56.60
2018-05-13T00:36:40.965Z,56.50
2018-05-13T00:40:43.639Z,56.80
2018-05-13T00:44:47.045Z,56.40
2018-05-13T00:48:50.496Z,56.70
2018-05-13T00:52:53.184Z,56.60
2018-05-13T00:56:55.788Z,56.40
2018-05-13T01:00:58.434Z,56.50
2018-05-13T01:05:01.074Z,56.40
2018-05-13T01:09:03.724Z,56.30
2018-05-13T01:13:06.364Z,56.50
2018-05-13T01:17:09.024Z,56.40
2018-05-13T01:21:11.735Z,56.60
2018-05-13T01:25:14.385Z,56.50
2018-05-13T01:29:17.796Z,56.50
2018-05-13T01:33:20.456Z,56.50
2018-05-13T01:37:23.056Z,56.50
2018-05-13T01:41:25.699Z,56.60
2018-05-13T01:45:28.408Z,56.60
2018-05-13T01:49:31.817Z,56.90
2018-05-13T01:53:35.188Z,56.70
2018-05-13T01:57:37.832Z,56.70
2018-05-13T02:01:40.468Z,56.80
2018-05-13T02:05:43.109Z,56.70
2018-05-13T02:09:45.760Z,56.70
2018-05-13T02:13:49.132Z,57.40
2018-05-13T02:17:51.776Z,57.30
2018-05-13T02:21:54.487Z,56.90
2018-05-13T02:25:57.131Z,57.30
2018-05-13T02:29:59.776Z,57.00
2018-05-13T02:34:02.384Z,57.00
2018-05-13T02:38:05.093Z,56.90
2018-05-13T02:42:07.743Z,56.90
2018-05-13T02:46:10.384Z,56.40
2018-05-13T02:50:13.812Z,57.10
2018-05-13T02:54:16.417Z,57.00
2018-05-13T02:58:19.075Z,57.00
2018-05-13T03:02:22.468Z,57.60
2018-05-13T03:06:25.891Z,57.30
2018-05-13T03:10:28.556Z,57.30
2018-05-13T03:14:31.165Z,58.40
2018-05-13T03:18:34.571Z,57.60
2018-05-13T03:22:37.212Z,57.50
2018-05-13T03:26:39.923Z,57.90
2018-05-13T03:30:42.534Z,57.90
2018-05-13T03:34:45.183Z,58.30
2018-05-13T03:38:47.833Z,58.90
2018-05-13T03:42:50.541Z,58.40
2018-05-13T03:46:53.190Z,58.60
2018-05-13T03:50:56.554Z,59.10
2018-05-13T03:54:59.200Z,59.10
2018-05-13T03:59:01.850Z,59.20
2018-05-13T04:03:05.260Z,58.90
2018-05-13T04:07:08.750Z,60.30
2018-05-13T04:11:23.296Z,59.70
2018-05-13T04:15:26.735Z,59.30
2018-05-13T04:19:29.375Z,59.10
2018-05-13T04:23:32.018Z,59.80
2018-05-13T04:27:35.424Z,59.00
2018-05-13T04:31:38.069Z,59.50
2018-05-13T04:35:40.761Z,61.00
2018-05-13T04:39:43.419Z,60.70
2018-05-13T04:43:46.111Z,60.90
2018-05-13T04:47:48.730Z,60.60
2018-05-13T04:51:51.376Z,60.30
2018-05-13T04:55:54.779Z,60.10
2018-05-13T04:59:58.192Z,60.50
2018-05-13T05:04:00.899Z,60.60
2018-05-13T05:08:03.514Z,61.10
2018-05-13T05:12:06.172Z,61.40
2018-05-13T05:16:08.811Z,61.30
2018-05-13T05:20:11.452Z,61.40
2018-05-13T05:24:14.059Z,62.30
2018-05-13T05:28:16.707Z,61.90
2018-05-13T05:32:19.389Z,62.20
2018-05-13T05:36:22.804Z,62.30
2018-05-13T05:40:25.517Z,62.20
2018-05-13T05:44:28.167Z,63.30
2018-05-13T05:48:31.576Z,63.10
2018-05-13T05:52:35.250Z,62.80
2018-05-13T05:56:37.949Z,62.70
2018-05-13T06:00:40.596Z,62.70
2018-05-13T06:04:43.203Z,65.20
2018-05-13T06:08:45.847Z,64.30
2018-05-13T06:12:49.312Z,62.00
2018-05-13T06:16:52.016Z,62.00
2018-05-13T06:20:54.664Z,62.70
2018-05-13T06:24:57.382Z,62.40
2018-05-13T06:29:00.076Z,63.70
2018-05-13T06:33:02.724Z,64.20
2018-05-13T06:37:05.403Z,64.60
2018-05-13T06:41:08.017Z,64.70
2018-05-13T06:45:10.736Z,62.50
2018-05-13T06:49:13.388Z,59.40
2018-05-13T06:53:16.031Z,57.90
2018-05-13T06:57:19.526Z,58.00
2018-05-13T07:01:22.079Z,57.90
2018-05-13T07:05:25.234Z,58.00
2018-05-13T07:09:28.648Z,59.40
2018-05-13T07:13:32.061Z,59.60
2018-05-13T07:17:34.709Z,59.60
2018-05-13T07:21:37.320Z,59.60
2018-05-13T07:25:40.745Z,60.30
2018-05-13T07:29:43.414Z,60.30
2018-05-13T07:33:46.832Z,59.90
2018-05-13T07:37:50.475Z,59.90
2018-05-13T07:41:53.097Z,59.90
2018-05-13T07:45:55.740Z,60.30
2018-05-13T07:49:58.387Z,60.50
2018-05-13T07:54:01.045Z,61.40
2018-05-13T07:58:03.657Z,61.90
2018-05-13T08:02:06.303Z,61.00
2018-05-13T08:06:09.019Z,60.40
2018-05-13T08:10:11.640Z,59.70
2018-05-13T08:14:15.061Z,59.30
2018-05-13T08:18:17.672Z,59.10
2018-05-13T08:22:20.347Z,59.60
2018-05-13T08:26:22.983Z,59.50
2018-05-13T08:30:25.625Z,58.00
2018-05-13T08:34:28.277Z,57.00
2018-05-13T08:38:30.899Z,57.30
2018-05-13T08:42:33.545Z,57.00
2018-05-13T08:46:36.278Z,56.20
2018-05-13T08:50:38.916Z,56.10
2018-05-13T08:54:41.655Z,56.30
2018-05-13T08:58:44.270Z,56.20
2018-05-13T09:02:46.909Z,56.30
2018-05-13T09:06:50.432Z,56.60
2018-05-13T09:10:53.142Z,56.60
2018-05-13T09:14:55.788Z,56.60
2018-05-13T09:18:58.398Z,56.90
2018-05-13T09:23:01.037Z,57.20
2018-05-13T09:27:03.679Z,57.30
2018-05-13T09:31:06.313Z,57.70
2018-05-13T09:35:08.921Z,57.80
2018-05-13T09:39:11.569Z,57.90
2018-05-13T09:43:14.212Z,58.00
2018-05-13T09:47:17.623Z,58.20
2018-05-13T09:51:21.073Z,57.70
2018-05-13T09:55:23.667Z,57.60
2018-05-13T09:59:26.333Z,58.00
2018-05-13T10:03:28.974Z,58.00
2018-05-13T10:07:31.618Z,57.70
2018-05-13T10:11:34.223Z,57.60
2018-05-13T10:15:36.864Z,57.20
2018-05-13T10:19:40.273Z,57.50
2018-05-13T10:23:42.968Z,57.50
2018-05-13T10:27:45.624Z,57.30
2018-05-13T10:31:48.231Z,57.50
2018-05-13T10:35:51.641Z,57.60
2018-05-13T10:39:54.395Z,57.60
2018-05-13T10:43:57.044Z,56.90
2018-05-13T10:47:59.688Z,57.30
2018-05-13T10:52:02.295Z,56.80
2018-05-13T10:56:05.695Z,56.40
2018-05-13T11:00:09.104Z,56.60
2018-05-13T11:04:11.793Z,56.60
2018-05-13T11:08:15.317Z,56.10
2018-05-13T11:12:17.920Z,56.00
2018-05-13T11:16:20.560Z,56.10
2018-05-13T11:20:23.211Z,56.70
2018-05-13T11:24:25.848Z,56.40
2018-05-13T11:28:29.229Z,56.50
2018-05-13T11:32:31.876Z,56.40
2018-05-13T11:36:34.573Z,56.20
2018-05-13T11:40:37.565Z,56.60
2018-05-13T11:44:40.961Z,56.10
2018-05-13T11:48:43.868Z,55.80
2018-05-13T11:52:46.802Z,55.60
2018-05-13T11:56:49.456Z,55.90
2018-05-13T12:00:52.109Z,55.20
2018-05-13T12:04:55.584Z,56.00
2018-05-13T12:08:58.196Z,55.90
2018-05-13T12:13:01.600Z,54.40
2018-05-13T12:17:05.004Z,54.50
2018-05-13T12:21:08.573Z,54.50
2018-05-13T12:29:04.675Z,54.20
2018-05-13T12:33:08.085Z,55.50
2018-05-13T12:37:11.502Z,55.40
2018-05-13T12:41:14.904Z,54.30
2018-05-13T12:45:18.283Z,55.10
2018-05-13T12:49:20.924Z,55.00
2018-05-13T12:53:23.563Z,54.90
2018-05-13T12:57:26.240Z,54.30
2018-05-13T13:01:28.884Z,53.70
2018-05-13T13:05:31.488Z,52.50
2018-05-13T13:09:34.224Z,52.50
2018-05-13T13:13:37.564Z,51.20
2018-05-13T13:17:40.206Z,51.50
2018-05-13T13:21:42.843Z,52.40
2018-05-13T13:25:45.448Z,51.60
2018-05-13T13:29:48.142Z,51.90
2018-05-13T13:33:50.775Z,49.80
2018-05-13T13:37:54.185Z,51.80
2018-05-13T13:41:57.655Z,52.40
2018-05-13T13:46:00.259Z,52.40
2018-05-13T13:50:02.899Z,50.10
2018-05-13T13:54:05.535Z,48.90
2018-05-13T13:58:08.213Z,49.40
2018-05-13T14:02:10.824Z,48.70
2018-05-13T14:06:13.479Z,46.80
2018-05-13T14:10:16.130Z,49.10
2018-05-13T14:14:18.837Z,49.10
2018-05-13T14:18:21.541Z,47.40
2018-05-13T14:22:24.151Z,47.50
2018-05-13T14:26:26.846Z,47.70
2018-05-13T14:30:29.488Z,46.30
2018-05-13T14:34:32.184Z,49.10
2018-05-13T14:38:34.883Z,47.40
2018-05-13T14:42:37.552Z,47.60
2018-05-13T14:46:40.197Z,47.10
2018-05-13T14:50:42.849Z,48.90
2018-05-13T14:54:45.527Z,49.00
2018-05-13T14:58:48.191Z,47.70
2018-05-13T15:02:50.824Z,48.00
2018-05-13T15:10:48.080Z,47.00
2018-05-13T15:14:50.710Z,47.90
2018-05-13T15:18:53.353Z,46.30
2018-05-13T15:22:56.041Z,47.50
2018-05-13T15:30:54.284Z,46.50
2018-05-13T15:34:56.925Z,45.70
2018-05-13T15:38:59.526Z,46.10
2018-05-13T15:43:03.010Z,46.40
2018-05-13T15:47:05.591Z,45.80
2018-05-13T15:51:08.228Z,47.10
2018-05-13T15:55:10.955Z,47.50
2018-05-13T15:59:13.573Z,47.00
2018-05-13T16:03:16.203Z,47.50
2018-05-13T16:07:18.852Z,46.30
2018-05-13T16:11:21.496Z,47.80
2018-05-13T16:15:24.088Z,46.30
2018-05-13T16:19:26.732Z,47.10
2018-05-13T16:23:30.141Z,47.20
2018-05-13T16:27:33.544Z,48.50
2018-05-13T16:31:37.891Z,49.30
2018-05-13T16:35:40.490Z,49.30
2018-05-13T16:39:43.127Z,49.70
2018-05-13T16:43:46.329Z,50.00
2018-05-13T16:47:49.659Z,50.20
2018-05-13T16:51:53.064Z,50.90
2018-05-13T16:55:56.428Z,51.30
2018-05-13T16:59:59.067Z,51.20
2018-05-13T17:04:01.707Z,51.10
2018-05-13T17:08:04.358Z,51.70
2018-05-13T17:12:06.995Z,51.90
2018-05-13T17:16:09.600Z,52.20
2018-05-13T17:20:13.013Z,52.50
2018-05-13T17:24:16.416Z,53.00
2018-05-13T17:28:19.821Z,53.00
2018-05-13T17:32:23.987Z,53.30
2018-05-13T17:36:26.633Z,53.20
2018-05-13T17:40:30.032Z,53.70
2018-05-13T17:44:32.673Z,53.60
2018-05-13T17:48:35.399Z,55.60
2018-05-13T17:52:38.008Z,54.50
2018-05-13T17:56:41.466Z,57.20
2018-05-13T18:00:44.103Z,56.50
2018-05-13T18:04:46.767Z,56.40
2018-05-13T18:08:49.468Z,56.90
2018-05-13T18:17:01.145Z,57.30
2018-05-13T18:21:03.787Z,56.70
2018-05-13T18:25:07.196Z,57.30
2018-05-13T18:29:10.660Z,56.90
2018-05-13T18:33:13.270Z,56.80
2018-05-13T18:37:15.916Z,59.10
2018-05-13T18:41:18.624Z,58.10
2018-05-13T18:45:21.277Z,57.60
2018-05-13T18:49:23.927Z,57.70
2018-05-13T18:53:26.596Z,59.20
2018-05-13T18:57:29.236Z,58.70
2018-05-13T19:01:32.650Z,58.20
2018-05-13T19:05:35.413Z,58.20
2018-05-13T19:09:38.025Z,58.10
2018-05-13T19:13:40.668Z,58.10
2018-05-13T19:17:43.372Z,58.40
2018-05-13T19:21:46.012Z,59.60
2018-05-13T19:25:48.661Z,58.00
2018-05-13T19:29:52.032Z,58.90
2018-05-13T19:33:54.680Z,58.90
2018-05-13T19:37:57.384Z,58.80
2018-05-13T19:42:00.033Z,58.00
2018-05-13T19:46:03.444Z,57.90
2018-05-13T19:50:06.880Z,58.20
2018-05-13T19:54:09.536Z,58.20
2018-05-13T19:58:13.003Z,58.00
2018-05-13T20:02:15.640Z,58.00
2018-05-13T20:06:19.056Z,57.90
2018-05-13T20:10:21.676Z,57.80
2018-05-13T20:14:24.318Z,58.30
2018-05-13T20:18:27.730Z,58.00
2018-05-13T20:22:30.408Z,58.00
2018-05-13T20:26:33.772Z,57.90
2018-05-13T20:30:36.417Z,57.00
2018-05-13T20:34:39.826Z,59.70
2018-05-13T20:38:43.288Z,58.80
2018-05-13T20:42:45.928Z,58.80
2018-05-13T20:46:48.567Z,58.30
2018-05-13T20:50:51.212Z,58.60
2018-05-13T20:54:53.858Z,58.40
2018-05-13T20:58:56.494Z,58.40
2018-05-13T21:02:59.184Z,59.40
2018-05-13T21:07:01.797Z,58.90
2018-05-13T21:11:04.453Z,58.80
2018-05-13T21:15:07.092Z,58.70
2018-05-13T21:19:09.737Z,58.60
2018-05-13T21:23:12.389Z,58.50
2018-05-13T21:27:15.764Z,58.60
2018-05-13T21:31:18.408Z,58.50
2018-05-13T21:35:21.051Z,59.10
2018-05-13T21:39:23.695Z,58.60
2018-05-13T21:43:26.384Z,59.10
2018-05-13T21:47:28.987Z,59.00
2018-05-13T21:51:31.629Z,59.00
2018-05-13T21:55:35.032Z,59.00
2018-05-13T21:59:38.449Z,60.10
2018-05-13T22:03:41.861Z,59.40
2018-05-13T22:07:44.525Z,59.40
2018-05-13T22:11:47.234Z,59.40
2018-05-13T22:15:50.644Z,59.10
2018-05-13T22:19:53.288Z,59.10
2018-05-13T22:23:55.936Z,58.90
2018-05-13T22:27:58.551Z,59.20
2018-05-13T22:32:01.202Z,59.10
2018-05-13T22:36:03.843Z,59.00
2018-05-13T22:40:06.484Z,58.80
2018-05-13T22:44:09.132Z,58.90
2018-05-13T22:48:11.732Z,58.90
2018-05-13T22:52:15.140Z,58.90
2018-05-13T22:56:18.550Z,59.10
2018-05-13T23:00:21.960Z,58.90
2018-05-13T23:04:25.376Z,59.10
2018-05-13T23:08:27.987Z,59.10
2018-05-13T23:12:30.628Z,59.00
2018-05-13T23:16:34.093Z,58.80
2018-05-13T23:20:36.748Z,58.70
2018-05-13T23:24:40.162Z,58.80
2018-05-13T23:28:42.772Z,58.70
2018-05-13T23:32:45.417Z,58.60
2018-05-13T23:36:48.826Z,58.70
2018-05-13T23:40:52.242Z,58.70
2018-05-13T23:44:54.880Z,58.70
2018-05-13T23:48:57.495Z,58.70
2018-05-13T23:53:00.905Z,59.30
2018-05-13T23:57:04.312Z,58.70
